Time;durP1;ratioP1;P1;durP2;ratioP2;P2;SDS_P1;SDS_P2;PMS_P1;PMS_P2;Temp;Humidity;BMP_temperature;BMP_pressure;BME280_temperature;BME280_humidity;BME280_pressure;Samples;Min_cycle;Max_cycle;Signal;HPM_P1;HPM_P2
2022/12/24 00:00:28;;;;;;;15.23;4.37;;;11.60;99.90;;;;;;4978224;28;20457;-76
2022/12/24 00:02:56;;;;;;;13.70;3.87;;;11.60;99.90;;;;;;4977947;28;20923;-76
2022/12/24 00:05:22;;;;;;;22.63;6.33;;;11.50;99.90;;;;;;4978156;28;20477;-76
2022/12/24 00:07:49;;;;;;;25.63;4.67;;;11.50;99.90;;;;;;4978016;28;20467;-76
2022/12/24 00:10:16;;;;;;;18.53;4.13;;;11.50;99.90;;;;;;4978065;28;20463;-76
2022/12/24 00:12:43;;;;;;;26.40;5.00;;;11.50;99.90;;;;;;4978173;28;20467;-76
2022/12/24 00:15:12;;;;;;;21.70;5.10;;;11.40;99.90;;;;;;4978329;28;20507;-76
2022/12/24 00:17:39;;;;;;;29.10;4.33;;;11.40;99.90;;;;;;4978066;28;20444;-77
2022/12/24 00:20:09;;;;;;;23.53;5.20;;;11.40;99.90;;;;;;4977767;28;20919;-76
2022/12/24 00:22:36;;;;;;;26.10;5.90;;;11.40;99.90;;;;;;4978237;28;20819;-76
2022/12/24 00:25:03;;;;;;;22.47;4.83;;;11.30;99.90;;;;;;4977727;28;20484;-76
2022/12/24 00:27:29;;;;;;;21.37;5.23;;;11.30;99.90;;;;;;4977880;28;20460;-76
2022/12/24 00:29:56;;;;;;;25.47;5.57;;;11.30;99.90;;;;;;4977924;28;20503;-76
2022/12/24 00:32:24;;;;;;;22.43;5.47;;;11.40;99.90;;;;;;4977781;28;20467;-76
2022/12/24 00:34:51;;;;;;;28.60;4.30;;;11.40;99.90;;;;;;4977679;28;20481;-76
2022/12/24 00:37:17;;;;;;;19.20;5.20;;;11.40;99.90;;;;;;4977703;28;20468;-76
2022/12/24 00:39:44;;;;;;;21.83;4.83;;;11.40;99.90;;;;;;4982687;28;20451;-76
2022/12/24 00:42:11;;;;;;;16.67;4.23;;;11.30;99.90;;;;;;4991470;28;20452;-76
2022/12/24 00:44:38;;;;;;;24.83;4.33;;;11.30;99.90;;;;;;4990823;28;20460;-76
2022/12/24 00:47:05;;;;;;;18.87;4.63;;;11.20;99.90;;;;;;4978593;28;20449;-76
2022/12/24 00:49:33;;;;;;;28.63;5.20;;;11.30;99.90;;;;;;4977413;28;20497;-76
2022/12/24 00:52:01;;;;;;;25.33;5.23;;;11.30;99.90;;;;;;4977050;28;20858;-76
2022/12/24 00:54:28;;;;;;;20.47;4.57;;;11.30;99.90;;;;;;4977273;28;20476;-76
2022/12/24 00:56:55;;;;;;;24.83;5.50;;;11.30;99.90;;;;;;4976965;28;20824;-76
2022/12/24 00:59:22;;;;;;;26.10;4.47;;;11.30;99.90;;;;;;4977458;28;20451;-76
2022/12/24 01:01:48;;;;;;;23.40;4.33;;;11.30;99.90;;;;;;4977277;28;20459;-77
2022/12/24 01:07:01;;;;;;;18.17;4.47;;;11.20;99.90;;;;;;4977193;28;20456;-76
2022/12/24 01:09:28;;;;;;;27.60;4.67;;;11.20;99.90;;;;;;4976750;28;20495;-76
2022/12/24 01:11:55;;;;;;;22.50;5.20;;;11.20;99.90;;;;;;4976943;28;20456;-77
2022/12/24 01:14:22;;;;;;;24.17;4.10;;;11.20;99.90;;;;;;4976663;28;20552;-76
2022/12/24 01:16:48;;;;;;;25.10;5.30;;;11.10;99.90;;;;;;4976843;28;20461;-76
2022/12/24 01:19:15;;;;;;;22.73;4.07;;;11.10;99.90;;;;;;4976767;28;20458;-76
2022/12/24 01:21:43;;;;;;;21.50;3.93;;;11.10;99.90;;;;;;4976535;28;20973;-76
2022/12/24 01:24:14;;;;;;;17.47;4.17;;;11.10;99.90;;;;;;4977396;28;20477;-77
2022/12/24 01:26:41;;;;;;;21.90;4.90;;;11.00;99.90;;;;;;4976916;28;20444;-76
2022/12/24 01:29:08;;;;;;;21.07;3.80;;;11.10;99.90;;;;;;4976721;28;20492;-76
2022/12/24 01:31:34;;;;;;;28.37;4.93;;;11.10;99.90;;;;;;4976951;28;20461;-76
2022/12/24 01:34:01;;;;;;;16.87;4.03;;;11.10;99.90;;;;;;4976687;28;20456;-77
2022/12/24 01:36:28;;;;;;;16.03;4.27;;;11.10;99.90;;;;;;4976558;28;20455;-76
2022/12/24 01:38:55;;;;;;;23.07;3.63;;;11.10;99.90;;;;;;4976589;28;20452;-76
2022/12/24 01:44:19;;;;;;;17.00;4.00;;;11.10;99.90;;;;;;4976540;28;20984;-76
2022/12/24 01:46:46;;;;;;;23.40;5.23;;;11.10;99.90;;;;;;4976445;28;20845;-76
2022/12/24 01:49:14;;;;;;;27.07;5.00;;;11.10;99.90;;;;;;4976318;28;21035;-76
2022/12/24 01:51:46;;;;;;;23.10;4.20;;;11.10;99.90;;;;;;4976360;28;20507;-76
2022/12/24 01:54:18;;;;;;;25.03;3.67;;;11.10;99.90;;;;;;4976282;28;20487;-76
2022/12/24 01:56:50;;;;;;;34.33;7.30;;;11.10;99.90;;;;;;4976293;28;20454;-76
2022/12/24 01:59:19;;;;;;;23.83;5.87;;;11.10;99.90;;;;;;4976120;28;20445;-76
2022/12/24 02:01:47;;;;;;;16.23;5.00;;;11.10;99.90;;;;;;4975932;28;20459;-76
2022/12/24 02:04:23;;;;;;;18.70;4.13;;;11.10;99.90;;;;;;4975850;28;20480;-76
2022/12/24 02:06:56;;;;;;;32.60;5.30;;;11.10;99.90;;;;;;4975976;28;20914;-76
2022/12/24 02:09:23;;;;;;;19.30;3.73;;;11.10;99.90;;;;;;4976442;28;20485;-76
2022/12/24 02:11:51;;;;;;;26.53;5.60;;;11.10;99.90;;;;;;4975807;28;20958;-76
2022/12/24 02:14:18;;;;;;;21.00;4.30;;;11.10;99.90;;;;;;4975910;28;20484;-76
2022/12/24 02:16:52;;;;;;;22.47;4.20;;;11.10;99.90;;;;;;4974948;28;20460;-76
2022/12/24 02:19:53;;;;;;;25.53;5.57;;;11.10;99.90;;;;;;4976599;28;20944;-76
2022/12/24 02:22:31;;;;;;;25.87;4.47;;;11.00;99.90;;;;;;4972828;28;20463;-76
2022/12/24 02:25:15;;;;;;;22.83;4.93;;;11.10;99.90;;;;;;4975473;28;20849;-75
2022/12/24 02:27:54;;;;;;;16.93;4.30;;;11.10;99.90;;;;;;4975565;28;20452;-76
2022/12/24 02:30:24;;;;;;;29.97;5.70;;;11.10;99.90;;;;;;4975460;28;20893;-76
2022/12/24 02:33:08;;;;;;;23.00;5.07;;;11.10;99.90;;;;;;4974493;28;20481;-76
2022/12/24 02:35:42;;;;;;;24.80;4.90;;;11.10;99.90;;;;;;4974273;28;20990;-76
2022/12/24 02:38:14;;;;;;;21.77;3.90;;;11.10;99.90;;;;;;4974313;28;20443;-76
2022/12/24 02:40:46;;;;;;;14.60;3.47;;;11.10;99.90;;;;;;4974426;28;20446;-77
2022/12/24 02:43:17;;;;;;;25.33;5.33;;;11.10;99.90;;;;;;4974471;28;20449;-76
2022/12/24 02:45:47;;;;;;;22.13;4.93;;;11.20;99.90;;;;;;4974429;28;20476;-77
2022/12/24 02:48:16;;;;;;;26.23;4.63;;;11.20;99.90;;;;;;4974417;28;20463;-76
2022/12/24 02:50:58;;;;;;;15.13;3.70;;;11.20;99.90;;;;;;4974334;28;20496;-76
2022/12/24 02:53:25;;;;;;;25.33;5.37;;;11.30;99.90;;;;;;4974077;28;20954;-76
2022/12/24 02:56:07;;;;;;;22.47;4.30;;;11.30;99.90;;;;;;4974329;28;20480;-76
2022/12/24 02:58:44;;;;;;;21.67;5.43;;;11.30;99.90;;;;;;4974263;28;20451;-76
2022/12/24 03:01:22;;;;;;;33.33;5.23;;;11.30;99.90;;;;;;4973932;28;20444;-76
2022/12/24 03:04:00;;;;;;;16.33;3.50;;;11.30;99.90;;;;;;4974494;28;20445;-76
2022/12/24 03:06:37;;;;;;;16.93;3.67;;;11.30;99.90;;;;;;4974289;28;20441;-76
2022/12/24 03:09:13;;;;;;;19.10;3.77;;;11.30;99.90;;;;;;4974028;28;20492;-76
2022/12/24 03:11:48;;;;;;;22.80;4.00;;;11.30;99.90;;;;;;4974147;28;20452;-76
2022/12/24 03:14:16;;;;;;;14.23;3.40;;;11.30;99.90;;;;;;4974192;28;20480;-77
2022/12/24 03:16:45;;;;;;;16.67;4.00;;;11.30;99.90;;;;;;4974107;28;20461;-76
2022/12/24 03:19:12;;;;;;;17.33;4.00;;;11.20;99.90;;;;;;4974158;28;20456;-76
2022/12/24 03:21:41;;;;;;;14.70;3.97;;;11.30;99.90;;;;;;4974104;28;20946;-76
2022/12/24 03:24:09;;;;;;;16.77;3.90;;;11.20;99.90;;;;;;4973953;28;20543;-76
2022/12/24 03:26:38;;;;;;;9.40;3.10;;;11.20;99.90;;;;;;4974272;28;20541;-76
2022/12/24 03:29:06;;;;;;;14.87;3.60;;;11.20;99.90;;;;;;4972310;28;20980;-76
2022/12/24 03:31:41;;;;;;;15.50;3.00;;;11.20;99.90;;;;;;4938224;28;1044442;-76
2022/12/24 03:34:13;;;;;;;15.20;3.90;;;11.20;99.90;;;;;;4974234;28;20230;-76
2022/12/24 03:36:39;;;;;;;17.27;4.97;;;11.20;99.90;;;;;;4975049;28;20452;-76
2022/12/24 03:39:06;;;;;;;8.30;3.10;;;11.20;99.90;;;;;;4974177;28;20462;-76
2022/12/24 03:41:33;;;;;;;15.10;3.40;;;11.20;99.90;;;;;;4974565;28;20471;-76
2022/12/24 03:44:00;;;;;;;14.23;3.20;;;11.20;99.90;;;;;;4974458;28;20957;-76
2022/12/24 03:46:27;;;;;;;11.73;3.00;;;11.20;99.90;;;;;;4974685;28;20463;-76
2022/12/24 03:48:53;;;;;;;10.23;3.27;;;11.10;99.90;;;;;;4974392;28;20457;-77
2022/12/24 03:51:23;;;;;;;9.70;2.80;;;11.10;99.90;;;;;;4974455;28;20472;-76
2022/12/24 03:53:52;;;;;;;15.77;3.07;;;11.00;99.90;;;;;;4974814;28;20459;-76
2022/12/24 03:56:19;;;;;;;12.17;2.97;;;11.10;99.90;;;;;;4974349;28;20468;-76
2022/12/24 03:58:46;;;;;;;12.60;2.77;;;11.00;99.90;;;;;;4974340;28;20466;-76
2022/12/24 04:01:12;;;;;;;20.07;3.43;;;11.00;99.90;;;;;;4974420;28;20460;-76
2022/12/24 04:03:39;;;;;;;10.87;2.03;;;11.10;99.90;;;;;;4974415;28;20465;-76
2022/12/24 04:06:08;;;;;;;11.70;2.57;;;11.10;99.90;;;;;;4974253;28;20563;-76
2022/12/24 04:08:37;;;;;;;6.43;2.00;;;11.10;99.90;;;;;;4974182;28;20468;-76
2022/12/24 04:11:05;;;;;;;9.37;2.80;;;11.10;99.90;;;;;;4974471;28;20491;-77
2022/12/24 04:13:31;;;;;;;11.83;2.77;;;11.10;99.90;;;;;;4974522;28;20464;-76
2022/12/24 04:15:59;;;;;;;14.53;2.70;;;11.10;99.90;;;;;;4974171;28;20487;-76
2022/12/24 04:18:26;;;;;;;11.07;2.27;;;11.20;99.90;;;;;;4974472;28;20461;-76
2022/12/24 04:20:53;;;;;;;9.53;2.67;;;11.10;99.90;;;;;;4973955;28;20441;-76
2022/12/24 04:23:20;;;;;;;4.73;1.77;;;11.10;99.90;;;;;;4974290;28;20462;-76
2022/12/24 04:25:48;;;;;;;11.70;2.93;;;11.20;99.90;;;;;;4974246;28;20473;-77
2022/12/24 04:28:15;;;;;;;8.00;2.00;;;11.20;99.90;;;;;;4974128;28;20487;-76
2022/12/24 04:30:42;;;;;;;8.33;2.90;;;11.20;99.90;;;;;;4973840;28;20496;-77
2022/12/24 04:33:09;;;;;;;14.30;2.63;;;11.20;99.90;;;;;;4974186;28;20438;-76
2022/12/24 04:35:40;;;;;;;10.47;3.40;;;11.20;99.90;;;;;;4973978;28;20488;-77
2022/12/24 04:38:07;;;;;;;13.47;2.80;;;11.20;99.90;;;;;;4974023;28;20444;-77
2022/12/24 04:40:37;;;;;;;10.03;2.70;;;11.10;99.90;;;;;;4976775;28;20565;-76
2022/12/24 04:43:05;;;;;;;13.50;2.77;;;11.10;99.90;;;;;;4977326;28;20468;-77
2022/12/24 04:45:32;;;;;;;10.70;2.73;;;11.10;99.90;;;;;;4977459;28;20560;-76
2022/12/24 04:47:59;;;;;;;9.70;2.97;;;11.20;99.90;;;;;;4977137;28;20561;-76
2022/12/24 04:50:26;;;;;;;8.73;2.77;;;11.00;99.90;;;;;;4977327;28;20492;-76
2022/12/24 04:52:52;;;;;;;13.27;3.80;;;11.00;99.90;;;;;;4977385;28;20459;-76
2022/12/24 04:55:19;;;;;;;12.43;2.80;;;11.00;99.90;;;;;;4977346;28;20481;-76
2022/12/24 04:57:46;;;;;;;18.23;3.47;;;11.10;99.90;;;;;;4977182;28;20488;-77
2022/12/24 05:00:14;;;;;;;13.80;3.20;;;11.00;99.90;;;;;;4977029;28;20463;-76
2022/12/24 05:02:41;;;;;;;15.57;3.03;;;11.00;99.90;;;;;;4977191;28;20457;-77
2022/12/24 05:05:09;;;;;;;8.60;3.37;;;11.00;99.90;;;;;;4977816;28;20473;-76
2022/12/24 05:07:35;;;;;;;10.63;2.63;;;11.00;99.90;;;;;;4976691;28;21060;-76
2022/12/24 05:10:02;;;;;;;11.27;2.90;;;11.00;99.90;;;;;;4976926;28;20496;-76
2022/12/24 05:12:29;;;;;;;12.33;3.73;;;11.00;99.90;;;;;;4976653;28;20957;-77
2022/12/24 05:14:55;;;;;;;9.17;2.50;;;11.00;99.90;;;;;;4976993;28;20484;-76
2022/12/24 05:17:23;;;;;;;13.00;3.80;;;10.90;99.90;;;;;;4976443;28;20976;-76
2022/12/24 05:19:50;;;;;;;18.70;3.50;;;10.90;99.90;;;;;;4976574;28;20963;-76
2022/12/24 05:27:45;;;;;;;20.57;4.87;;;10.80;99.90;;;;;;4977078;28;20412;-76
2022/12/24 05:30:12;;;;;;;13.37;3.67;;;10.80;99.90;;;;;;4976521;28;20578;-77
2022/12/24 05:32:40;;;;;;;13.27;3.27;;;10.80;99.90;;;;;;4976381;28;20472;-77
2022/12/24 05:35:07;;;;;;;19.97;3.30;;;10.80;99.90;;;;;;4977194;28;20480;-77
2022/12/24 05:37:34;;;;;;;17.37;3.43;;;10.90;99.90;;;;;;4984393;28;20456;-77
2022/12/24 05:40:01;;;;;;;14.80;3.87;;;10.90;99.90;;;;;;4991222;28;20551;-76
2022/12/24 05:42:27;;;;;;;15.60;4.33;;;10.90;99.90;;;;;;4987363;28;20452;-76
2022/12/24 05:44:54;;;;;;;21.23;4.90;;;10.90;99.90;;;;;;4991631;28;20476;-76
2022/12/24 05:47:21;;;;;;;22.97;4.70;;;10.90;99.90;;;;;;4980653;28;21078;-76
2022/12/24 05:49:51;;;;;;;20.27;3.80;;;10.90;99.90;;;;;;4976754;28;20493;-76
2022/12/24 05:52:17;;;;;;;26.67;4.20;;;10.90;99.90;;;;;;4976045;28;20442;-76
2022/12/24 05:54:44;;;;;;;15.30;4.53;;;10.90;99.90;;;;;;4976641;28;20470;-76
2022/12/24 05:57:11;;;;;;;16.33;4.80;;;10.90;99.90;;;;;;4976819;28;20460;-77
2022/12/24 05:59:37;;;;;;;15.13;4.20;;;11.00;99.90;;;;;;4977273;28;20462;-77
2022/12/24 06:02:04;;;;;;;13.00;4.70;;;11.00;99.90;;;;;;4977776;28;20452;-77
2022/12/24 06:04:31;;;;;;;21.57;4.63;;;11.10;99.90;;;;;;4977521;28;20476;-77
2022/12/24 06:06:59;;;;;;;19.60;4.93;;;11.10;99.90;;;;;;4977544;28;20461;-77
2022/12/24 06:09:26;;;;;;;18.77;4.70;;;11.10;99.90;;;;;;4976458;28;20477;-77
2022/12/24 06:11:52;;;;;;;21.10;5.20;;;11.10;99.90;;;;;;4976031;28;20489;-77
2022/12/24 06:14:19;;;;;;;22.37;4.03;;;11.10;99.90;;;;;;4976065;28;20489;-77
2022/12/24 06:16:46;;;;;;;21.13;5.37;;;11.10;99.90;;;;;;4975972;28;20464;-77
2022/12/24 06:19:12;;;;;;;22.17;5.77;;;11.10;99.90;;;;;;4976502;28;20937;-77
2022/12/24 06:21:39;;;;;;;24.47;5.53;;;11.10;99.90;;;;;;4975644;28;20463;-78
2022/12/24 06:24:08;;;;;;;17.23;4.93;;;11.10;99.90;;;;;;4975568;28;20480;-77
2022/12/24 06:26:34;;;;;;;16.80;4.57;;;11.10;99.90;;;;;;4975401;28;20961;-77
2022/12/24 06:29:01;;;;;;;20.23;5.53;;;11.10;99.90;;;;;;4975506;28;20488;-77
2022/12/24 06:31:28;;;;;;;34.27;5.57;;;11.10;99.90;;;;;;4975559;28;20496;-78
2022/12/24 06:33:55;;;;;;;17.10;5.03;;;11.10;99.90;;;;;;4975218;28;20821;-77
2022/12/24 06:36:23;;;;;;;16.27;4.47;;;11.10;99.90;;;;;;4975655;28;20464;-77
2022/12/24 06:38:50;;;;;;;22.83;4.80;;;11.10;99.90;;;;;;4976453;28;20462;-78
2022/12/24 06:41:19;;;;;;;23.40;5.13;;;11.10;99.90;;;;;;4976517;28;20461;-78
2022/12/24 06:43:47;;;;;;;22.57;5.63;;;11.10;99.90;;;;;;4975830;28;20459;-77
2022/12/24 06:46:15;;;;;;;18.17;5.07;;;11.20;99.90;;;;;;4975552;28;20441;-77
2022/12/24 06:48:43;;;;;;;17.90;5.70;;;11.20;99.90;;;;;;4975310;28;20465;-77
2022/12/24 06:51:09;;;;;;;25.63;5.17;;;11.20;99.90;;;;;;4975735;28;20556;-77
2022/12/24 06:53:36;;;;;;;27.90;6.23;;;11.20;99.90;;;;;;4975771;28;20487;-77
2022/12/24 06:56:03;;;;;;;24.10;5.60;;;11.20;99.90;;;;;;4975810;28;20503;-77
2022/12/24 06:58:33;;;;;;;20.57;5.00;;;11.20;99.90;;;;;;4975363;28;20471;-77
2022/12/24 07:01:01;;;;;;;22.90;5.93;;;11.20;99.90;;;;;;4975579;28;20463;-77
2022/12/24 07:03:28;;;;;;;18.17;4.80;;;11.20;99.90;;;;;;4975441;28;20464;-77
2022/12/24 07:05:55;;;;;;;19.47;5.00;;;11.20;99.90;;;;;;4975512;28;20841;-77
2022/12/24 07:08:22;;;;;;;29.47;5.00;;;11.20;99.90;;;;;;4975570;28;20802;-77
2022/12/24 07:10:49;;;;;;;24.10;5.63;;;11.30;99.90;;;;;;4975496;28;20583;-77
2022/12/24 07:13:16;;;;;;;23.63;4.97;;;11.30;99.90;;;;;;4975580;28;20493;-77
2022/12/24 07:15:45;;;;;;;21.10;4.10;;;11.30;99.90;;;;;;4974886;28;21258;-77
2022/12/24 07:18:11;;;;;;;20.53;4.17;;;11.20;99.90;;;;;;4975831;28;20463;-77
2022/12/24 07:20:38;;;;;;;27.70;5.97;;;11.20;99.90;;;;;;4975803;28;20445;-77
2022/12/24 07:23:05;;;;;;;32.40;5.73;;;11.20;99.90;;;;;;4975280;28;20455;-77
2022/12/24 07:25:32;;;;;;;18.13;4.77;;;11.10;99.90;;;;;;4974657;28;21008;-77
2022/12/24 07:27:59;;;;;;;26.77;5.70;;;11.10;99.90;;;;;;4982231;28;20457;-77
2022/12/24 07:30:25;;;;;;;21.93;4.37;;;11.10;99.90;;;;;;4992313;28;20492;-77
2022/12/24 07:32:53;;;;;;;18.90;4.30;;;11.10;99.90;;;;;;4980108;28;20469;-77
2022/12/24 07:35:21;;;;;;;23.77;5.83;;;11.10;99.90;;;;;;4975728;28;21001;-77
2022/12/24 07:37:48;;;;;;;19.97;4.90;;;11.10;99.90;;;;;;4975539;28;20532;-77
2022/12/24 07:40:15;;;;;;;25.63;5.57;;;11.10;99.90;;;;;;4974957;28;20460;-77
2022/12/24 07:42:41;;;;;;;20.37;5.10;;;11.10;99.90;;;;;;4974410;28;20878;-77
2022/12/24 07:45:09;;;;;;;27.63;5.40;;;11.00;99.90;;;;;;4974623;28;20487;-78
2022/12/24 07:47:36;;;;;;;22.17;4.83;;;11.10;99.90;;;;;;4974634;28;20466;-78
2022/12/24 07:50:05;;;;;;;20.43;5.87;;;11.10;99.90;;;;;;4974170;28;20473;-77
2022/12/24 07:52:31;;;;;;;22.43;4.60;;;11.20;99.90;;;;;;4974588;28;20443;-77
2022/12/24 07:54:58;;;;;;;18.50;4.77;;;11.20;99.90;;;;;;4974149;28;20487;-77
2022/12/24 07:57:25;;;;;;;27.33;5.27;;;11.10;99.90;;;;;;4974550;28;20480;-77
2022/12/24 07:59:52;;;;;;;21.80;4.93;;;11.20;99.90;;;;;;4974198;28;20853;-77
2022/12/24 08:02:18;;;;;;;25.20;5.80;;;11.20;99.90;;;;;;4974434;28;20460;-77
2022/12/24 08:04:45;;;;;;;29.50;5.50;;;11.20;99.90;;;;;;4974342;28;20480;-77
2022/12/24 08:07:13;;;;;;;29.13;3.90;;;11.20;99.90;;;;;;4974288;28;20464;-77
2022/12/24 08:09:40;;;;;;;24.90;4.57;;;11.30;99.90;;;;;;4974064;28;20937;-77
2022/12/24 08:12:07;;;;;;;17.20;4.60;;;11.30;99.90;;;;;;4974178;28;20489;-78
2022/12/24 08:14:33;;;;;;;34.27;5.40;;;11.30;99.90;;;;;;4975281;28;20482;-77
2022/12/24 08:17:00;;;;;;;27.07;5.13;;;11.40;99.90;;;;;;4978165;28;20467;-77
2022/12/24 08:19:27;;;;;;;18.03;5.77;;;11.40;99.90;;;;;;4978252;28;20437;-77
2022/12/24 08:21:54;;;;;;;21.13;5.47;;;11.50;99.90;;;;;;4978314;28;20645;-77
2022/12/24 08:24:22;;;;;;;20.53;4.80;;;11.50;99.90;;;;;;4978300;28;20481;-77
2022/12/24 08:26:48;;;;;;;23.27;5.37;;;11.50;99.90;;;;;;4977927;28;20464;-77
2022/12/24 08:29:15;;;;;;;22.77;5.50;;;11.50;99.90;;;;;;4977806;28;20466;-77
2022/12/24 08:31:42;;;;;;;23.43;4.50;;;11.50;99.90;;;;;;4977353;28;20495;-77
2022/12/24 08:34:10;;;;;;;19.43;5.07;;;11.50;99.90;;;;;;4977283;28;20468;-77
2022/12/24 08:36:37;;;;;;;24.90;4.57;;;11.50;99.90;;;;;;4977565;28;20540;-77
2022/12/24 08:39:04;;;;;;;18.30;5.00;;;11.50;99.90;;;;;;4977732;28;20467;-77
2022/12/24 08:41:32;;;;;;;27.83;5.40;;;11.50;99.90;;;;;;4977283;28;20853;-77
2022/12/24 08:43:59;;;;;;;29.10;5.93;;;11.50;99.90;;;;;;4977678;28;20455;-77
2022/12/24 08:46:26;;;;;;;17.00;4.80;;;11.50;99.90;;;;;;4977129;28;20458;-77
2022/12/24 08:48:53;;;;;;;35.23;5.00;;;11.50;99.90;;;;;;4977387;28;20475;-77
2022/12/24 08:51:19;;;;;;;22.07;5.60;;;11.50;99.90;;;;;;4977097;28;20481;-77
2022/12/24 08:53:46;;;;;;;16.80;5.20;;;11.60;99.90;;;;;;4977264;28;20461;-77
2022/12/24 08:56:18;;;;;;;24.40;5.00;;;11.50;99.90;;;;;;4977288;28;20456;-77
2022/12/24 08:58:47;;;;;;;14.07;5.23;;;11.50;99.90;;;;;;4977430;28;20441;-77
2022/12/24 09:01:17;;;;;;;28.93;5.37;;;11.50;99.90;;;;;;4977862;28;20460;-78
2022/12/24 09:03:44;;;;;;;21.80;5.57;;;11.50;99.90;;;;;;4977862;28;20459;-77
2022/12/24 09:06:11;;;;;;;25.57;5.20;;;11.60;99.90;;;;;;4976974;28;20577;-77
2022/12/24 09:08:38;;;;;;;35.67;5.33;;;11.50;99.90;;;;;;4977064;28;20459;-77
2022/12/24 09:11:06;;;;;;;23.77;5.37;;;11.50;99.90;;;;;;4977120;28;20489;-77
2022/12/24 09:13:34;;;;;;;18.70;4.97;;;11.60;99.90;;;;;;4976701;28;20452;-77
2022/12/24 09:16:03;;;;;;;28.33;5.83;;;11.60;99.90;;;;;;4977059;28;20477;-77
2022/12/24 09:18:30;;;;;;;18.70;5.37;;;11.50;99.90;;;;;;4976913;28;20460;-77
2022/12/24 09:21:00;;;;;;;26.83;6.43;;;11.50;99.90;;;;;;4977160;28;20465;-78
2022/12/24 09:23:27;;;;;;;23.43;5.40;;;11.60;99.90;;;;;;4977443;28;20455;-77
2022/12/24 09:25:54;;;;;;;28.53;6.10;;;11.60;99.90;;;;;;4976756;28;20470;-77
2022/12/24 09:28:22;;;;;;;26.73;6.70;;;11.60;99.90;;;;;;4977399;28;20460;-78
2022/12/24 09:31:00;;;;;;;26.50;5.77;;;11.60;99.90;;;;;;4978108;28;20979;-77
2022/12/24 09:33:31;;;;;;;23.20;5.30;;;11.60;99.90;;;;;;4977868;28;20504;-77
2022/12/24 09:35:58;;;;;;;22.77;5.07;;;11.60;99.90;;;;;;4978580;28;20470;-77
2022/12/24 09:38:25;;;;;;;24.97;5.23;;;11.60;99.90;;;;;;4978802;28;20460;-77
2022/12/24 09:40:53;;;;;;;27.07;5.50;;;11.50;99.90;;;;;;4976223;28;20437;-77
2022/12/24 09:43:22;;;;;;;27.20;6.63;;;11.50;99.90;;;;;;4977373;28;20460;-78
2022/12/24 09:46:00;;;;;;;24.93;5.40;;;11.60;99.90;;;;;;4976591;28;20484;-77
2022/12/24 09:48:32;;;;;;;24.30;5.50;;;11.60;99.90;;;;;;4976458;28;20813;-77
2022/12/24 09:51:03;;;;;;;24.63;6.50;;;11.70;99.90;;;;;;4976309;28;20445;-78
2022/12/24 09:53:37;;;;;;;18.93;5.90;;;11.70;99.90;;;;;;4976448;28;20442;-78
2022/12/24 09:56:11;;;;;;;24.80;6.60;;;11.70;99.90;;;;;;4976178;28;20488;-77
2022/12/24 09:58:41;;;;;;;32.50;6.63;;;11.70;99.90;;;;;;4976193;28;20464;-79
2022/12/24 10:01:12;;;;;;;23.50;6.27;;;11.70;99.90;;;;;;4976349;28;20446;-77
2022/12/24 10:03:40;;;;;;;16.30;6.20;;;11.80;99.90;;;;;;4976020;28;20449;-77
2022/12/24 10:06:11;;;;;;;29.43;6.27;;;11.80;99.90;;;;;;4975617;28;20881;-78
2022/12/24 10:08:48;;;;;;;26.80;7.20;;;11.80;99.90;;;;;;4976019;28;20444;-77
2022/12/24 10:11:22;;;;;;;22.43;5.70;;;11.90;99.90;;;;;;4975808;28;20477;-78
2022/12/24 10:14:03;;;;;;;22.47;5.90;;;11.90;99.90;;;;;;4975442;28;20442;-78
2022/12/24 10:16:39;;;;;;;32.87;6.03;;;12.00;99.90;;;;;;4975924;28;20446;-78
2022/12/24 10:19:16;;;;;;;30.73;5.77;;;12.10;99.90;;;;;;4975857;28;20535;-78
2022/12/24 10:21:54;;;;;;;26.30;6.00;;;12.20;99.90;;;;;;4975824;28;20785;-78
2022/12/24 10:24:25;;;;;;;28.27;6.20;;;12.30;99.90;;;;;;4975702;28;20473;-77
2022/12/24 10:26:56;;;;;;;23.73;4.93;;;12.40;99.90;;;;;;4975675;28;20445;-78
2022/12/24 10:29:27;;;;;;;25.07;5.80;;;12.40;99.90;;;;;;4975770;28;20801;-79
2022/12/24 10:31:58;;;;;;;33.33;8.17;;;12.40;99.90;;;;;;4975283;28;20493;-78
2022/12/24 10:34:30;;;;;;;21.67;4.80;;;12.30;99.90;;;;;;4975250;28;20485;-78
2022/12/24 10:36:58;;;;;;;23.60;4.93;;;12.40;99.90;;;;;;4975752;28;20450;-78
2022/12/24 10:39:26;;;;;;;25.33;5.00;;;12.30;99.90;;;;;;4975484;28;20484;-78
2022/12/24 10:41:56;;;;;;;28.13;5.97;;;12.30;99.90;;;;;;4975589;28;20965;-77
2022/12/24 10:44:27;;;;;;;26.73;5.53;;;12.30;99.90;;;;;;4976475;28;20996;-78
2022/12/24 10:46:54;;;;;;;34.20;6.83;;;12.30;99.90;;;;;;4976155;28;20461;-78
2022/12/24 10:49:31;;;;;;;24.83;6.10;;;12.20;99.90;;;;;;4976643;28;20950;-78
2022/12/24 10:52:03;;;;;;;21.97;5.20;;;12.20;99.90;;;;;;4976622;28;20491;-77
2022/12/24 10:54:37;;;;;;;32.47;7.93;;;12.20;99.90;;;;;;4976240;28;20477;-77
2022/12/24 10:57:06;;;;;;;26.73;5.30;;;12.20;99.90;;;;;;4976885;28;20437;-77
2022/12/24 10:59:42;;;;;;;18.70;4.90;;;12.20;99.90;;;;;;4976236;28;20460;-77
2022/12/24 11:02:26;;;;;;;24.00;5.83;;;12.30;99.90;;;;;;4977041;28;20781;-77
2022/12/24 11:04:55;;;;;;;18.60;5.40;;;12.30;99.90;;;;;;4976626;28;20853;-77
2022/12/24 11:07:23;;;;;;;20.10;5.80;;;12.30;99.90;;;;;;4976283;28;20456;-77
2022/12/24 11:09:56;;;;;;;19.90;5.10;;;12.40;99.90;;;;;;4976527;28;20457;-78
2022/12/24 11:12:26;;;;;;;19.37;4.93;;;12.40;99.90;;;;;;4976338;28;20474;-77
2022/12/24 11:15:02;;;;;;;30.27;6.40;;;12.50;99.90;;;;;;4977113;28;20473;-77
2022/12/24 11:17:30;;;;;;;17.23;4.63;;;12.50;99.90;;;;;;4976383;28;20438;-77
2022/12/24 11:19:58;;;;;;;21.37;6.20;;;12.60;99.90;;;;;;4976189;28;20457;-78
2022/12/24 11:22:27;;;;;;;21.60;4.73;;;12.60;99.90;;;;;;4975851;28;20457;-78
2022/12/24 11:25:06;;;;;;;33.10;7.13;;;12.60;99.90;;;;;;4976100;28;20484;-77
2022/12/24 11:27:46;;;;;;;22.67;5.60;;;12.60;99.90;;;;;;4975818;28;20533;-77
2022/12/24 11:30:32;;;;;;;27.60;5.73;;;12.70;99.90;;;;;;4976272;28;20453;-77
2022/12/24 11:33:20;;;;;;;27.07;5.03;;;12.70;99.90;;;;;;4975718;28;20564;-77
2022/12/24 11:35:52;;;;;;;27.07;4.77;;;12.70;99.90;;;;;;4975604;28;21018;-77
2022/12/24 11:38:22;;;;;;;21.43;5.10;;;12.70;99.90;;;;;;4976339;28;20446;-77
2022/12/24 11:40:56;;;;;;;17.20;5.40;;;12.90;99.90;;;;;;4975413;28;20818;-77
2022/12/24 11:43:23;;;;;;;21.90;5.20;;;13.20;99.90;;;;;;4975275;28;20460;-77
2022/12/24 11:45:51;;;;;;;29.57;5.33;;;13.40;99.80;;;;;;4975276;28;20473;-77
2022/12/24 11:48:30;;;;;;;18.90;5.50;;;13.50;99.10;;;;;;4974929;28;20534;-77
2022/12/24 11:51:00;;;;;;;29.53;6.10;;;13.70;99.50;;;;;;4977953;28;20453;-77
2022/12/24 11:53:36;;;;;;;18.40;4.87;;;13.70;98.70;;;;;;4978774;28;20480;-77
2022/12/24 11:56:08;;;;;;;25.83;5.90;;;13.80;98.50;;;;;;4978717;28;20477;-77
2022/12/24 11:58:41;;;;;;;22.10;5.20;;;13.90;98.40;;;;;;4978270;28;20910;-78
2022/12/24 12:01:15;;;;;;;25.00;5.23;;;14.00;97.80;;;;;;4978718;28;20500;-79
2022/12/24 12:03:45;;;;;;;21.57;4.77;;;14.00;97.70;;;;;;4978697;28;20438;-77
2022/12/24 12:06:27;;;;;;;24.77;5.20;;;13.90;97.80;;;;;;4978519;28;20442;-77
2022/12/24 12:08:57;;;;;;;25.13;5.70;;;13.80;98.10;;;;;;4978524;28;20443;-79
2022/12/24 12:11:27;;;;;;;19.63;5.13;;;13.70;97.80;;;;;;4978680;28;20438;-77
2022/12/24 12:13:56;;;;;;;21.07;6.00;;;13.60;98.30;;;;;;4978279;28;20467;-77
2022/12/24 12:16:28;;;;;;;28.47;5.10;;;13.60;98.50;;;;;;4978764;28;20841;-77
2022/12/24 12:19:00;;;;;;;14.73;5.50;;;13.60;98.00;;;;;;4985737;28;20448;-77
2022/12/24 12:21:34;;;;;;;26.53;5.47;;;13.50;97.80;;;;;;4988459;28;20445;-78
2022/12/24 12:24:06;;;;;;;31.10;5.73;;;13.40;97.60;;;;;;4989963;28;20436;-78
2022/12/24 12:26:33;;;;;;;22.73;5.40;;;13.30;98.10;;;;;;4989644;28;20434;-78
2022/12/24 12:29:04;;;;;;;19.67;5.57;;;13.30;98.10;;;;;;4987562;28;20958;-77
2022/12/24 12:31:35;;;;;;;17.13;4.17;;;13.20;98.20;;;;;;4980017;28;20476;-78
2022/12/24 12:34:05;;;;;;;20.80;4.50;;;13.30;98.30;;;;;;4979950;28;20456;-77
2022/12/24 12:36:38;;;;;;;16.70;5.20;;;13.30;97.50;;;;;;4979071;28;20436;-77
2022/12/24 12:39:05;;;;;;;17.53;4.30;;;13.50;97.70;;;;;;4978885;28;20441;-78
2022/12/24 12:41:45;;;;;;;22.50;5.90;;;13.60;97.60;;;;;;4978561;28;20991;-77
2022/12/24 12:44:37;;;;;;;24.13;5.03;;;13.70;96.90;;;;;;4978685;28;20484;-77
2022/12/24 12:47:19;;;;;;;16.43;4.83;;;13.60;95.70;;;;;;4978192;28;20481;-77
2022/12/24 12:49:54;;;;;;;11.27;3.97;;;13.50;96.20;;;;;;4977946;28;20445;-77
2022/12/24 12:52:40;;;;;;;20.83;3.73;;;13.50;96.40;;;;;;4977615;28;20473;-78
2022/12/24 12:55:22;;;;;;;19.90;7.13;;;13.40;96.20;;;;;;4977926;28;20481;-77
2022/12/24 12:57:52;;;;;;;23.10;5.80;;;13.50;96.20;;;;;;4977623;28;20445;-78
2022/12/24 13:00:19;;;;;;;21.30;4.60;;;13.50;95.60;;;;;;4977303;28;20555;-77